Time;durP1;ratioP1;P1;durP2;ratioP2;P2;SDS_P1;SDS_P2;PMS_P1;PMS_P2;Temp;Humidity;BMP_temperature;BMP_pressure;BME280_temperature;BME280_humidity;BME280_pressure;Samples;Min_cycle;Max_cycle;Signal;HPM_P1;HPM_P2
2023/12/01 00:01:53;;;;;;;4.35;2.80;;;;;;;1.11;100.00;90949.28;4936130;29;20035;-79
2023/12/01 00:04:20;;;;;;;3.85;2.20;;;;;;;1.15;100.00;90953.63;4918932;29;20439;-79
2023/12/01 00:06:45;;;;;;;3.65;2.10;;;;;;;1.18;100.00;90965.22;4933827;29;20051;-79
2023/12/01 00:09:11;;;;;;;3.70;2.20;;;;;;;1.20;100.00;90969.06;4934913;29;20043;-78
2023/12/01 00:11:36;;;;;;;3.42;2.20;;;;;;;1.25;100.00;90950.22;4950540;29;20183;-79
2023/12/01 00:14:02;;;;;;;5.57;1.90;;;;;;;1.26;100.00;90946.59;4933716;29;20031;-79
2023/12/01 00:16:28;;;;;;;2.60;1.60;;;;;;;1.25;100.00;90961.31;4948371;29;20082;-79
2023/12/01 00:18:53;;;;;;;3.15;1.70;;;;;;;1.29;100.00;90965.94;4937347;29;20130;-79
2023/12/01 00:21:19;;;;;;;2.92;1.80;;;;;;;1.32;100.00;90958.44;4937045;29;20061;-79
2023/12/01 00:23:44;;;;;;;2.85;1.80;;;;;;;1.36;100.00;90946.56;4935775;29;20122;-79
2023/12/01 00:26:10;;;;;;;3.90;2.10;;;;;;;1.38;100.00;90929.00;4917914;29;20505;-79
2023/12/01 00:28:35;;;;;;;4.30;2.70;;;;;;;1.37;100.00;90930.03;4927045;29;20039;-78
2023/12/01 00:31:01;;;;;;;5.00;2.80;;;;;;;1.43;100.00;90926.41;4918267;29;20040;-78
2023/12/01 00:33:27;;;;;;;4.45;2.97;;;;;;;1.43;100.00;90921.22;4924893;29;20492;-78
2023/12/01 00:35:52;;;;;;;4.72;2.97;;;;;;;1.45;100.00;90939.78;4932789;29;20039;-78
2023/12/01 00:38:19;;;;;;;5.10;2.78;;;;;;;1.41;100.00;90946.50;4922432;29;20047;-79
2023/12/01 00:40:44;;;;;;;4.28;2.40;;;;;;;1.40;100.00;90945.00;4935289;29;20051;-78
2023/12/01 00:43:12;;;;;;;5.45;2.30;;;;;;;1.40;100.00;90941.66;4926638;29;20051;-78
2023/12/01 00:45:38;;;;;;;3.15;2.00;;;;;;;1.43;100.00;90943.69;4933964;29;20424;-78
2023/12/01 00:48:03;;;;;;;2.60;1.55;;;;;;;1.46;100.00;90953.44;4932185;29;20035;-79
2023/12/01 00:50:29;;;;;;;2.50;1.70;;;;;;;1.52;100.00;90946.47;4932319;29;20032;-77
2023/12/01 00:52:55;;;;;;;5.32;3.40;;;;;;;1.64;100.00;90952.03;4930090;29;20044;-78
2023/12/01 00:55:20;;;;;;;4.65;3.10;;;;;;;1.47;100.00;90946.50;4924892;29;20128;-79
2023/12/01 00:57:46;;;;;;;5.22;3.35;;;;;;;1.34;100.00;90946.03;4933791;29;20027;-78
2023/12/01 01:00:12;;;;;;;5.15;3.50;;;;;;;1.30;100.00;90937.31;4937627;29;20143;-79
2023/12/01 01:02:37;;;;;;;7.75;3.33;;;;;;;1.26;100.00;90928.56;4936276;29;20118;-79
2023/12/01 01:05:04;;;;;;;3.15;1.85;;;;;;;1.33;100.00;90925.69;4919734;29;20055;-78
2023/12/01 01:07:30;;;;;;;4.68;2.63;;;;;;;1.37;100.00;90927.44;4933727;29;20046;-78
2023/12/01 01:09:55;;;;;;;4.15;2.67;;;;;;;1.35;100.00;90906.34;4940614;29;20031;-79
2023/12/01 01:12:21;;;;;;;4.97;2.78;;;;;;;1.43;100.00;90918.66;4930365;29;20058;-79
2023/12/01 01:14:47;;;;;;;4.70;2.70;;;;;;;1.40;100.00;90915.88;4928442;29;20032;-78
2023/12/01 01:17:12;;;;;;;3.67;2.42;;;;;;;1.40;100.00;90916.63;4932757;29;20044;-78
2023/12/01 01:19:38;;;;;;;4.05;2.55;;;;;;;1.37;100.00;90904.25;4933310;29;20040;-79
2023/12/01 01:22:03;;;;;;;4.35;2.50;;;;;;;1.39;100.00;90917.66;4933199;29;20048;-79
2023/12/01 01:24:29;;;;;;;4.05;2.30;;;;;;;1.43;100.00;90907.56;4910013;29;20027;-78
2023/12/01 01:26:54;;;;;;;3.50;1.92;;;;;;;1.48;100.00;90911.94;4952954;29;20522;-78
2023/12/01 01:29:20;;;;;;;3.17;1.92;;;;;;;1.53;100.00;90906.72;4952075;28;20046;-79
2023/12/01 01:31:46;;;;;;;3.85;2.30;;;;;;;1.56;100.00;90916.53;4939344;29;20054;-79
2023/12/01 01:34:11;;;;;;;5.25;2.05;;;;;;;1.62;100.00;90916.22;4921396;29;20027;-79
2023/12/01 01:36:37;;;;;;;3.13;1.80;;;;;;;1.63;100.00;90915.16;4949630;29;20040;-78
2023/12/01 01:39:02;;;;;;;2.65;1.70;;;;;;;1.57;100.00;90913.66;4933719;29;20039;-79
2023/12/01 01:41:28;;;;;;;3.10;1.65;;;;;;;1.65;100.00;90925.97;4936404;29;20063;-79
2023/12/01 01:43:53;;;;;;;2.65;1.60;;;;;;;1.65;100.00;90912.31;4930868;28;20113;-78
2023/12/01 01:46:20;;;;;;;3.95;1.60;;;;;;;1.69;100.00;90918.50;4935636;29;20040;-78
2023/12/01 01:48:45;;;;;;;3.38;2.20;;;;;;;1.73;100.00;90919.47;4936608;29;20066;-77
2023/12/01 01:51:14;;;;;;;3.53;2.20;;;;;;;1.70;100.00;90922.59;4944829;29;20072;-78
2023/12/01 01:53:43;;;;;;;4.15;2.50;;;;;;;1.74;100.00;90913.28;4943533;29;20042;-77
2023/12/01 01:56:12;;;;;;;3.15;1.75;;;;;;;1.70;100.00;90904.53;4950016;29;20046;-78
2023/12/01 01:58:38;;;;;;;3.45;1.70;;;;;;;1.70;100.00;90909.69;4929780;29;20054;-78
2023/12/01 02:01:07;;;;;;;2.90;1.60;;;;;;;1.74;100.00;90900.38;4956836;29;20042;-78
2023/12/01 02:03:32;;;;;;;2.53;1.58;;;;;;;1.74;100.00;90890.06;4921787;29;20047;-78
2023/12/01 02:05:58;;;;;;;2.95;1.60;;;;;;;1.79;100.00;90891.84;4943701;29;20162;-79
2023/12/01 02:08:26;;;;;;;2.70;1.80;;;;;;;1.75;100.00;90873.53;4939510;29;20336;-78
2023/12/01 02:10:53;;;;;;;3.17;1.80;;;;;;;1.85;100.00;90881.19;4951399;29;20042;-78
2023/12/01 02:13:20;;;;;;;2.53;1.65;;;;;;;1.93;100.00;90879.06;4937398;29;20046;-78
2023/12/01 02:15:46;;;;;;;3.15;1.85;;;;;;;1.99;100.00;90875.41;4935372;29;20035;-78
2023/12/01 02:18:27;;;;;;;3.45;2.05;;;;;;;2.00;100.00;90882.09;4916350;29;20518;-80
2023/12/01 02:20:54;;;;;;;2.80;1.80;;;;;;;2.01;100.00;90883.66;4950927;29;20040;-78
2023/12/01 02:23:20;;;;;;;3.58;2.10;;;;;;;1.96;100.00;90881.88;4939442;29;20115;-77
2023/12/01 02:25:46;;;;;;;3.22;1.90;;;;;;;1.94;100.00;90878.81;4955085;29;20060;-78
2023/12/01 02:28:12;;;;;;;4.00;1.90;;;;;;;1.96;100.00;90875.94;4939664;29;20055;-78
2023/12/01 02:30:38;;;;;;;3.00;1.90;;;;;;;1.93;100.00;90863.56;4939419;29;20054;-78
2023/12/01 02:33:03;;;;;;;3.03;1.83;;;;;;;2.00;100.00;90869.19;4939967;29;20230;-79
2023/12/01 02:35:32;;;;;;;3.00;1.80;;;;;;;2.01;100.00;90857.84;4962796;28;20047;-77
2023/12/01 02:37:59;;;;;;;3.78;1.80;;;;;;;2.04;100.00;90868.38;4938671;29;20034;-78
2023/12/01 02:40:25;;;;;;;2.80;1.60;;;;;;;2.08;100.00;90868.59;4940117;29;20051;-78
2023/12/01 02:42:52;;;;;;;2.70;1.60;;;;;;;2.08;100.00;90866.78;4940287;29;20047;-78
2023/12/01 02:45:19;;;;;;;2.42;1.50;;;;;;;2.18;100.00;90878.03;4955948;28;20101;-78
2023/12/01 02:47:47;;;;;;;3.47;1.30;;;;;;;2.27;100.00;90878.97;4938897;29;20031;-78
2023/12/01 02:50:14;;;;;;;2.60;1.52;;;;;;;2.53;100.00;90878.72;4939062;29;20070;-78
2023/12/01 02:52:41;;;;;;;3.20;1.50;;;;;;;2.53;100.00;90874.31;4933643;29;20050;-78
2023/12/01 02:55:07;;;;;;;2.53;1.60;;;;;;;2.38;100.00;90877.06;4931221;29;20032;-78
2023/12/01 02:57:39;;;;;;;2.90;1.67;;;;;;;2.39;100.00;90881.19;4956297;28;20038;-81
2023/12/01 03:00:13;;;;;;;2.80;1.58;;;;;;;2.37;100.00;90880.72;4939755;29;20423;-78
2023/12/01 03:02:45;;;;;;;4.75;1.55;;;;;;;2.37;100.00;90888.44;4946094;29;20055;-77
2023/12/01 03:05:11;;;;;;;2.47;1.42;;;;;;;2.40;100.00;90882.72;4939025;29;20120;-78
2023/12/01 03:07:38;;;;;;;2.72;1.58;;;;;;;2.41;100.00;90874.72;4938266;29;20512;-78
2023/12/01 03:10:05;;;;;;;2.17;1.40;;;;;;;2.44;100.00;90868.22;4936644;28;20142;-78
2023/12/01 03:12:30;;;;;;;1.58;1.30;;;;;;;2.48;100.00;90869.97;4958790;29;20043;-78
2023/12/01 03:14:59;;;;;;;1.23;1.10;;;;;;;2.55;100.00;90856.72;4950031;29;20038;-78
2023/12/01 03:17:25;;;;;;;1.45;1.00;;;;;;;2.63;100.00;90852.75;4948712;28;20035;-78
2023/12/01 03:19:51;;;;;;;1.13;0.98;;;;;;;2.70;100.00;90853.19;4962200;29;20066;-78
2023/12/01 03:22:19;;;;;;;1.17;0.98;;;;;;;2.77;100.00;90845.09;4967863;29;20043;-78
2023/12/01 03:24:47;;;;;;;0.77;0.77;;;;;;;2.83;100.00;90846.56;4969520;28;20511;-78
2023/12/01 03:27:14;;;;;;;0.80;0.80;;;;;;;2.95;100.00;90836.59;4960192;29;20047;-78
2023/12/01 03:29:40;;;;;;;1.40;1.10;;;;;;;3.03;100.00;90835.94;4968543;29;20039;-77
2023/12/01 03:32:06;;;;;;;2.63;1.20;;;;;;;3.23;100.00;90821.22;4952368;29;20099;-77
2023/12/01 03:34:32;;;;;;;2.42;1.50;;;;;;;3.22;100.00;90825.63;4955981;29;20046;-77
2023/12/01 03:36:57;;;;;;;2.28;1.40;;;;;;;3.01;100.00;90799.28;4966224;29;20071;-77
2023/12/01 03:39:23;;;;;;;2.03;1.35;;;;;;;3.00;100.00;90795.16;4971220;28;20050;-77
2023/12/01 03:41:48;;;;;;;1.70;1.40;;;;;;;2.98;100.00;90799.06;4978965;28;20042;-78
2023/12/01 03:44:15;;;;;;;1.58;1.23;;;;;;;3.00;100.00;90805.50;4941803;29;20039;-78
2023/12/01 03:46:40;;;;;;;1.85;1.30;;;;;;;3.00;100.00;90807.31;4917079;29;20042;-78
2023/12/01 03:49:06;;;;;;;2.40;1.30;;;;;;;3.01;100.00;90817.38;4939123;29;20051;-78
2023/12/01 03:51:32;;;;;;;1.80;1.17;;;;;;;3.05;100.00;90822.75;4954800;28;20038;-78
2023/12/01 03:53:57;;;;;;;1.35;1.15;;;;;;;3.11;100.00;90835.31;4954090;29;20080;-78
2023/12/01 03:56:23;;;;;;;1.02;0.90;;;;;;;3.15;100.00;90827.75;4948214;29;20039;-77
2023/12/01 03:58:54;;;;;;;1.10;0.88;;;;;;;3.19;100.00;90833.16;4953838;28;20094;-80
2023/12/01 04:01:20;;;;;;;1.75;1.08;;;;;;;3.26;100.00;90839.50;4951300;29;20050;-79
2023/12/01 04:03:46;;;;;;;1.90;1.20;;;;;;;3.41;100.00;90833.34;4952078;29;20045;-80
2023/12/01 04:06:11;;;;;;;2.30;1.60;;;;;;;3.45;100.00;90831.72;4952205;29;20117;-80
2023/12/01 04:08:37;;;;;;;64.10;5.40;;;;;;;3.35;100.00;90829.28;4942276;29;20471;-78
2023/12/01 04:11:03;;;;;;;2.47;1.70;;;;;;;3.13;100.00;90827.31;4952606;29;20043;-80
2023/12/01 04:13:29;;;;;;;2.00;1.50;;;;;;;3.06;100.00;90829.44;4935437;29;20098;-79
2023/12/01 04:15:55;;;;;;;2.90;1.50;;;;;;;3.01;100.00;90835.47;4936804;29;20432;-79
2023/12/01 04:18:21;;;;;;;174.32;7.57;;;;;;;2.90;100.00;90813.38;4953283;28;20063;-78
2023/12/01 04:20:47;;;;;;;2.60;1.40;;;;;;;2.93;100.00;90838.69;4936390;29;20030;-78
2023/12/01 04:23:14;;;;;;;6.18;1.60;;;;;;;2.99;100.00;90840.13;4937057;29;20023;-79
2023/12/01 04:25:46;;;;;;;3.70;1.55;;;;;;;2.94;100.00;90842.81;4952620;29;20122;-78
2023/12/01 04:28:14;;;;;;;4.43;1.70;;;;;;;2.89;100.00;90835.88;4936801;29;20062;-78
2023/12/01 04:30:40;;;;;;;2.35;1.50;;;;;;;2.93;100.00;90830.94;4954564;29;20031;-78
2023/12/01 04:33:06;;;;;;;2.40;1.50;;;;;;;2.96;100.00;90819.25;4930628;29;20455;-77
2023/12/01 04:35:34;;;;;;;1.95;1.42;;;;;;;2.98;100.00;90825.69;4929788;29;20039;-80
2023/12/01 04:38:03;;;;;;;2.28;1.38;;;;;;;3.01;100.00;90832.13;4951668;28;20042;-80
2023/12/01 04:40:29;;;;;;;2.50;1.35;;;;;;;3.04;100.00;90827.16;4951736;29;20502;-79
2023/12/01 04:42:56;;;;;;;300.98;12.60;;;;;;;3.09;100.00;90823.72;4951241;29;20040;-78
2023/12/01 04:45:25;;;;;;;290.15;12.05;;;;;;;3.00;100.00;90835.75;4944576;29;20039;-79
2023/12/01 04:47:52;;;;;;;216.23;9.93;;;;;;;2.87;100.00;90834.63;4949578;29;20090;-79
2023/12/01 04:50:25;;;;;;;75.43;4.13;;;;;;;2.89;100.00;90835.13;4954825;29;20415;-79
2023/12/01 04:53:00;;;;;;;72.13;3.75;;;;;;;2.85;100.00;90818.63;4956147;28;20039;-78
2023/12/01 04:55:28;;;;;;;7.55;1.73;;;;;;;2.79;100.00;90806.81;4956791;28;20573;-79
2023/12/01 04:57:54;;;;;;;3.58;1.42;;;;;;;2.78;100.00;90808.63;4936611;29;20039;-79
2023/12/01 05:00:22;;;;;;;1.50;1.20;;;;;;;2.77;100.00;90807.13;4954975;29;20105;-79
2023/12/01 05:02:59;;;;;;;2.58;1.40;;;;;;;2.81;100.00;90817.66;4937233;29;20426;-79
2023/12/01 05:05:27;;;;;;;2.80;1.45;;;;;;;2.88;100.00;90824.03;4953832;29;20054;-79
2023/12/01 05:07:57;;;;;;;2.00;1.40;;;;;;;2.87;100.00;90822.47;4934420;29;20411;-78
2023/12/01 05:10:24;;;;;;;1.42;1.30;;;;;;;2.93;100.00;90818.00;4953981;29;20118;-78
2023/12/01 05:12:55;;;;;;;1.80;1.30;;;;;;;2.99;100.00;90811.69;4937170;29;20385;-77
2023/12/01 05:15:24;;;;;;;1.55;1.30;;;;;;;3.00;100.00;90800.31;4953167;29;20141;-77
2023/12/01 05:18:06;;;;;;;1.63;1.30;;;;;;;3.02;100.00;90793.06;4952897;29;20027;-78
2023/12/01 05:20:33;;;;;;;1.92;1.50;;;;;;;3.02;100.00;90782.72;4927797;29;20489;-78
2023/12/01 05:23:09;;;;;;;2.38;1.42;;;;;;;3.06;100.00;90773.38;4954064;29;20041;-78
2023/12/01 05:25:37;;;;;;;1.88;1.40;;;;;;;3.08;100.00;90766.06;4946642;29;20111;-78
2023/12/01 05:28:05;;;;;;;1.20;1.10;;;;;;;3.14;100.00;90769.34;4946880;29;20555;-79
2023/12/01 05:30:40;;;;;;;1.40;1.30;;;;;;;3.19;100.00;90764.09;4936230;29;20047;-80
2023/12/01 05:33:06;;;;;;;1.80;1.20;;;;;;;3.25;100.00;90770.72;4940085;29;20035;-81
2023/12/01 05:35:37;;;;;;;1.85;1.33;;;;;;;3.28;100.00;90759.81;4941092;29;20122;-79
2023/12/01 05:38:06;;;;;;;1.70;1.13;;;;;;;3.36;100.00;90760.25;4937948;29;20569;-78
2023/12/01 05:40:39;;;;;;;1.90;1.05;;;;;;;3.38;100.00;90766.66;4942105;29;20039;-80
2023/12/01 05:43:06;;;;;;;1.52;1.20;;;;;;;3.35;100.00;90767.22;4944317;29;20035;-79
2023/12/01 05:45:35;;;;;;;1.33;1.20;;;;;;;3.40;100.00;90787.84;4947840;29;20059;-80
2023/12/01 05:48:03;;;;;;;2.15;1.30;;;;;;;3.41;100.00;90775.66;4955124;29;20050;-79
2023/12/01 05:50:30;;;;;;;1.63;1.30;;;;;;;3.41;100.00;90763.50;4954230;29;20053;-79
2023/12/01 05:52:58;;;;;;;1.40;1.25;;;;;;;3.40;100.00;90750.84;4958321;29;20035;-79
2023/12/01 05:55:26;;;;;;;1.10;1.00;;;;;;;3.45;100.00;90759.28;4956101;29;20031;-80
2023/12/01 05:57:57;;;;;;;1.13;0.98;;;;;;;3.47;100.00;90757.19;4959761;28;20043;-78
2023/12/01 06:00:29;;;;;;;1.20;1.10;;;;;;;3.58;100.00;90769.94;4954465;29;20503;-77
2023/12/01 06:02:57;;;;;;;1.42;1.20;;;;;;;3.54;100.00;90765.34;4933417;29;20036;-78
2023/12/01 06:05:23;;;;;;;1.27;1.15;;;;;;;3.51;100.00;90753.00;4957292;29;20036;-78
2023/12/01 06:07:52;;;;;;;1.52;1.10;;;;;;;3.53;100.00;90756.06;4939482;29;20097;-81
2023/12/01 06:10:19;;;;;;;2.17;1.00;;;;;;;3.69;100.00;90748.00;4957870;29;20063;-82
2023/12/01 06:12:45;;;;;;;92.00;5.82;;;;;;;3.67;100.00;90750.13;4958520;29;20035;-79
2023/12/01 06:15:16;;;;;;;2.05;1.33;;;;;;;3.54;100.00;90734.31;4937833;28;20062;-79
2023/12/01 06:17:48;;;;;;;2.77;1.40;;;;;;;3.61;100.00;90736.50;4952518;28;20238;-81
2023/12/01 06:20:18;;;;;;;4.57;2.10;;;;;;;3.58;100.00;90754.41;4938685;29;20050;-79
2023/12/01 06:22:56;;;;;;;3.83;2.65;;;;;;;3.54;100.00;90767.94;4957464;29;20042;-80
2023/12/01 06:25:27;;;;;;;2.90;1.60;;;;;;;3.53;100.00;90765.63;4936355;29;20067;-80
2023/12/01 06:27:56;;;;;;;1.23;1.00;;;;;;;3.58;100.00;90772.53;4937514;29;20040;-79
2023/12/01 06:30:22;;;;;;;1.05;1.00;;;;;;;3.64;100.00;90771.41;4937324;29;20046;-82
2023/12/01 06:32:48;;;;;;;3.00;1.60;;;;;;;3.66;100.00;90772.66;4938310;29;20070;-79
2023/12/01 06:35:15;;;;;;;1.63;1.10;;;;;;;3.71;100.00;90766.63;4938287;29;20047;-79
2023/12/01 06:37:42;;;;;;;1.33;0.90;;;;;;;3.72;100.00;90758.56;4937990;29;20444;-78
2023/12/01 06:40:12;;;;;;;1.00;1.00;;;;;;;3.81;100.00;90763.84;4937435;29;20730;-80
2023/12/01 06:42:45;;;;;;;1.52;1.25;;;;;;;3.85;100.00;90767.41;4939245;29;20052;-80
2023/12/01 06:45:12;;;;;;;2.03;1.20;;;;;;;3.89;100.00;90773.53;4938015;29;20066;-79
2023/12/01 06:47:48;;;;;;;1.27;1.10;;;;;;;3.92;100.00;90772.22;4936285;29;20404;-79
2023/12/01 06:50:15;;;;;;;39.10;3.10;;;;;;;3.99;100.00;90777.00;4938603;29;20047;-79
2023/12/01 06:52:45;;;;;;;131.73;6.22;;;;;;;3.78;100.00;90774.75;4938851;29;20087;-78
2023/12/01 06:55:10;;;;;;;75.53;3.97;;;;;;;3.65;100.00;90765.19;4938676;29;20071;-80
2023/12/01 06:57:41;;;;;;;2.28;1.50;;;;;;;3.57;100.00;90765.84;4938525;29;20503;-80
2023/12/01 07:00:09;;;;;;;7.13;1.58;;;;;;;3.64;100.00;90761.06;4938796;29;20130;-80
2023/12/01 07:02:39;;;;;;;2.80;1.50;;;;;;;3.52;100.00;90762.28;4939500;29;20118;-81
2023/12/01 07:05:05;;;;;;;23.42;2.20;;;;;;;3.46;100.00;90755.66;4940309;29;20078;-78
2023/12/01 07:07:32;;;;;;;1.95;1.40;;;;;;;3.43;100.00;90751.03;4930903;29;20024;-79
2023/12/01 07:09:59;;;;;;;3.63;1.30;;;;;;;3.48;100.00;90745.78;4935736;29;20040;-81
2023/12/01 07:12:25;;;;;;;2.17;1.40;;;;;;;3.49;100.00;90755.09;4920441;29;20032;-81
2023/12/01 07:14:50;;;;;;;1.85;1.40;;;;;;;3.46;100.00;90755.66;4921460;29;20515;-81
2023/12/01 07:17:17;;;;;;;2.38;1.50;;;;;;;3.47;100.00;90743.50;4925921;29;20024;-81
2023/12/01 07:19:42;;;;;;;1.75;1.40;;;;;;;3.47;100.00;90741.66;4940183;29;20047;-81
2023/12/01 07:22:10;;;;;;;1.92;1.38;;;;;;;3.46;100.00;90726.44;4938681;29;20403;-78
2023/12/01 07:24:36;;;;;;;2.25;1.40;;;;;;;3.47;100.00;90731.31;4938727;29;20035;-81
2023/12/01 07:27:09;;;;;;;2.13;1.40;;;;;;;3.50;100.00;90730.75;4960444;29;20118;-81
2023/12/01 07:29:38;;;;;;;1.60;1.30;;;;;;;3.52;100.00;90739.00;4942112;29;20098;-80
2023/12/01 07:32:04;;;;;;;2.28;1.40;;;;;;;3.55;100.00;90746.16;4958391;29;20035;-81
2023/12/01 07:34:29;;;;;;;1.20;1.10;;;;;;;3.58;100.00;90757.78;4956429;29;20101;-81
2023/12/01 07:36:55;;;;;;;1.48;1.20;;;;;;;3.59;100.00;90753.38;4955132;29;20035;-81
2023/12/01 07:39:22;;;;;;;1.58;1.30;;;;;;;3.63;100.00;90752.53;4942145;29;20035;-81
2023/12/01 07:41:57;;;;;;;1.77;1.30;;;;;;;3.69;100.00;90748.00;4959998;29;20038;-80
2023/12/01 07:44:23;;;;;;;1.40;1.13;;;;;;;3.72;100.00;90748.22;4942070;29;20177;-78
2023/12/01 07:46:48;;;;;;;1.45;1.10;;;;;;;3.77;100.00;90755.13;4959365;29;20031;-81
2023/12/01 07:49:14;;;;;;;1.42;1.00;;;;;;;3.81;100.00;90766.44;4958824;28;20384;-80
2023/12/01 07:51:40;;;;;;;1.50;1.20;;;;;;;3.91;100.00;90779.19;4958381;29;20105;-80
2023/12/01 07:54:05;;;;;;;1.40;1.10;;;;;;;4.01;100.00;90790.41;4937143;29;20134;-81
2023/12/01 07:56:31;;;;;;;233.00;10.50;;;;;;;4.09;100.00;90782.75;4953311;28;20043;-79
2023/12/01 07:58:57;;;;;;;203.27;6.68;;;;;;;3.99;100.00;90787.38;4939327;29;20038;-78
2023/12/01 08:01:23;;;;;;;360.02;11.75;;;;;;;3.65;100.00;90768.53;4938041;29;20073;-80
2023/12/01 08:03:48;;;;;;;233.27;7.80;;;;;;;3.39;100.00;90775.94;4955943;29;20023;-80
2023/12/01 08:06:14;;;;;;;117.07;4.85;;;;;;;3.25;100.00;90780.31;4956905;29;20107;-80
2023/12/01 08:08:41;;;;;;;265.92;8.05;;;;;;;3.05;100.00;90776.97;4956986;29;20078;-80
2023/12/01 08:11:06;;;;;;;337.23;8.07;;;;;;;2.97;100.00;90785.38;4957013;29;20035;-78
2023/12/01 08:13:32;;;;;;;32.25;2.15;;;;;;;2.91;100.00;90786.50;4948688;29;20082;-78
2023/12/01 08:15:58;;;;;;;8.88;1.60;;;;;;;2.95;100.00;90797.03;4956548;29;20126;-78
2023/12/01 08:18:23;;;;;;;28.27;2.00;;;;;;;2.90;100.00;90787.53;4939148;29;20023;-79
2023/12/01 08:20:50;;;;;;;2.92;1.08;;;;;;;3.00;100.00;90800.31;4956383;29;20483;-79
2023/12/01 08:23:16;;;;;;;1.48;1.10;;;;;;;3.02;100.00;90798.25;4939101;29;20035;-79
2023/12/01 08:25:44;;;;;;;47.72;2.58;;;;;;;3.05;100.00;90802.84;4938606;29;20056;-79
2023/12/01 08:28:10;;;;;;;0.80;0.80;;;;;;;3.09;100.00;90798.66;4938881;29;20047;-79
2023/12/01 08:30:36;;;;;;;1.52;0.63;;;;;;;3.09;100.00;90798.66;4956700;29;20388;-79
2023/12/01 08:33:03;;;;;;;0.80;0.80;;;;;;;3.22;100.00;90804.13;4939017;29;20066;-79
2023/12/01 08:35:28;;;;;;;29.60;2.15;;;;;;;3.27;100.00;90814.44;4955629;29;20093;-79
2023/12/01 08:37:54;;;;;;;38.72;2.05;;;;;;;3.28;100.00;90816.72;4939134;29;20039;-79
2023/12/01 08:40:20;;;;;;;111.15;4.00;;;;;;;3.20;100.00;90819.16;4938730;29;20027;-78
2023/12/01 08:42:46;;;;;;;7.85;1.20;;;;;;;3.21;100.00;90811.13;4938998;29;20047;-78
2023/12/01 08:45:11;;;;;;;13.18;1.52;;;;;;;3.20;100.00;90806.22;4955446;29;20038;-77
2023/12/01 08:47:38;;;;;;;19.02;1.50;;;;;;;3.13;100.00;90785.94;4938818;29;20043;-78
2023/12/01 08:50:04;;;;;;;4.55;0.88;;;;;;;3.19;100.00;90797.72;4956235;29;20102;-79
2023/12/01 08:52:30;;;;;;;44.60;2.03;;;;;;;3.18;100.00;90792.84;4939526;29;20043;-79
2023/12/01 08:54:55;;;;;;;2.88;0.73;;;;;;;3.18;100.00;90806.53;4939083;29;20509;-80
2023/12/01 08:57:21;;;;;;;202.75;6.43;;;;;;;3.17;100.00;90806.81;4955407;29;20027;-79
2023/12/01 08:59:46;;;;;;;151.38;5.25;;;;;;;3.14;100.00;90808.13;4938084;29;20047;-80
2023/12/01 09:02:12;;;;;;;210.35;6.20;;;;;;;3.18;100.00;90801.38;4955407;29;20074;-79
2023/12/01 09:04:37;;;;;;;428.23;11.52;;;;;;;3.14;100.00;90805.56;4938925;29;20039;-80
2023/12/01 09:07:04;;;;;;;292.63;8.07;;;;;;;3.00;100.00;90795.16;4938321;29;20031;-77
2023/12/01 09:09:30;;;;;;;355.75;9.30;;;;;;;2.98;100.00;90794.66;4941386;29;20051;-79
2023/12/01 09:11:55;;;;;;;35.90;2.33;;;;;;;2.98;100.00;90797.25;4959706;29;20039;-79
2023/12/01 09:14:21;;;;;;;23.75;1.65;;;;;;;2.93;100.00;90776.66;4958898;29;20090;-79
2023/12/01 09:16:46;;;;;;;29.67;2.15;;;;;;;3.04;100.00;90779.84;4941597;29;20050;-80
2023/12/01 09:19:13;;;;;;;16.00;1.85;;;;;;;3.11;100.00;90788.78;4958929;29;20534;-79
2023/12/01 09:21:38;;;;;;;128.70;5.05;;;;;;;3.34;100.00;90791.56;4941393;29;20521;-78
2023/12/01 09:24:04;;;;;;;166.88;6.38;;;;;;;3.19;100.00;90786.59;4959471;29;20024;-78
2023/12/01 09:26:30;;;;;;;33.13;1.98;;;;;;;3.06;100.00;90788.09;4941846;29;20426;-79
2023/12/01 09:28:55;;;;;;;207.73;6.43;;;;;;;3.07;100.00;90777.47;4958996;29;20034;-79
2023/12/01 09:31:21;;;;;;;174.10;5.47;;;;;;;2.99;100.00;90778.09;4941775;29;20049;-78
2023/12/01 09:33:47;;;;;;;208.38;5.93;;;;;;;2.91;100.00;90778.75;4959276;29;20130;-78
2023/12/01 09:36:12;;;;;;;148.05;4.68;;;;;;;2.79;100.00;90763.69;4959603;29;20395;-79
2023/12/01 09:38:38;;;;;;;102.20;4.53;;;;;;;2.87;100.00;90762.25;4941591;29;20044;-80
2023/12/01 09:41:04;;;;;;;72.60;2.97;;;;;;;2.84;100.00;90749.91;4958511;29;20031;-80
2023/12/01 09:43:31;;;;;;;33.25;1.75;;;;;;;2.83;100.00;90743.94;4940717;29;20035;-79
2023/12/01 09:45:58;;;;;;;24.00;1.55;;;;;;;2.88;100.00;90737.94;4958836;29;20043;-79
2023/12/01 09:48:24;;;;;;;1.00;0.90;;;;;;;2.90;100.00;90720.34;4941179;29;20031;-78
2023/12/01 09:50:50;;;;;;;16.13;1.63;;;;;;;2.95;100.00;90722.06;4941898;29;20074;-78
2023/12/01 09:53:19;;;;;;;23.67;1.65;;;;;;;2.97;100.00;90735.50;4941456;29;20392;-79
2023/12/01 09:55:44;;;;;;;1.10;0.90;;;;;;;2.99;100.00;90730.81;4942484;29;20031;-79
2023/12/01 09:58:10;;;;;;;85.40;4.15;;;;;;;3.00;100.00;90725.38;4959581;28;20450;-80
2023/12/01 10:00:36;;;;;;;22.83;2.10;;;;;;;3.03;100.00;90727.38;4958939;29;20145;-80
2023/12/01 10:03:02;;;;;;;4.15;1.10;;;;;;;3.15;100.00;90721.75;4941742;29;20553;-77
2023/12/01 10:05:34;;;;;;;1.65;1.30;;;;;;;3.19;100.00;90729.72;4958064;29;20432;-80
2023/12/01 10:08:00;;;;;;;44.63;2.90;;;;;;;3.28;100.00;90731.38;4941618;29;20428;-79
2023/12/01 10:10:26;;;;;;;17.25;1.92;;;;;;;3.24;100.00;90737.38;4926434;29;20082;-79
2023/12/01 10:13:03;;;;;;;3.80;1.35;;;;;;;3.25;100.00;90757.03;4939354;29;20083;-80
2023/12/01 10:15:30;;;;;;;6.53;2.08;;;;;;;3.29;100.00;90760.59;4938989;29;20048;-79
2023/12/01 10:18:15;;;;;;;136.63;5.93;;;;;;;3.26;100.00;90746.41;4939708;29;20027;-80
2023/12/01 10:21:02;;;;;;;2.17;0.85;;;;;;;3.34;100.00;90753.50;4939498;29;20374;-79
2023/12/01 10:23:29;;;;;;;1.77;1.27;;;;;;;3.31;100.00;90737.78;4937635;29;20051;-79
2023/12/01 10:25:55;;;;;;;1.50;1.20;;;;;;;3.36;100.00;90736.97;4938818;29;20350;-79
2023/12/01 10:28:22;;;;;;;6.32;2.10;;;;;;;3.32;100.00;90711.66;4938756;29;20046;-77
2023/12/01 10:30:56;;;;;;;42.05;3.28;;;;;;;3.50;100.00;90720.41;4955240;29;20119;-80
2023/12/01 10:33:23;;;;;;;373.42;10.02;;;;;;;3.45;100.00;90712.72;4957090;29;20047;-79
2023/12/01 10:35:58;;;;;;;50.85;3.08;;;;;;;3.34;100.00;90701.78;4940926;29;20074;-79
2023/12/01 10:38:29;;;;;;;51.47;2.45;;;;;;;3.44;100.00;90700.84;4940008;29;20043;-79
2023/12/01 10:40:55;;;;;;;92.47;3.92;;;;;;;3.27;100.00;90696.22;4940101;29;20372;-80
2023/12/01 10:43:22;;;;;;;60.17;2.47;;;;;;;3.31;100.00;90697.19;4956743;29;20053;-79
2023/12/01 10:45:51;;;;;;;81.35;3.13;;;;;;;3.21;100.00;90681.06;4924341;29;20047;-80
2023/12/01 10:48:19;;;;;;;74.32;3.90;;;;;;;3.07;100.00;90686.97;4939979;29;20039;-78
2023/12/01 10:50:46;;;;;;;68.70;3.42;;;;;;;3.03;100.00;90703.34;4939465;29;20053;-79
2023/12/01 10:53:14;;;;;;;16.10;1.45;;;;;;;3.00;100.00;90696.94;4939436;29;20091;-80
2023/12/01 10:55:42;;;;;;;5.47;0.80;;;;;;;3.17;100.00;90693.78;4956043;29;20043;-79
2023/12/01 10:58:11;;;;;;;40.53;2.03;;;;;;;3.17;100.00;90683.44;4956586;28;20116;-78
2023/12/01 11:00:36;;;;;;;14.88;2.00;;;;;;;3.10;100.00;90681.22;4957243;29;20035;-79
2023/12/01 11:03:06;;;;;;;1.30;1.00;;;;;;;3.12;100.00;90686.91;4940039;29;20046;-79
2023/12/01 11:05:35;;;;;;;60.17;3.85;;;;;;;3.14;100.00;90681.44;4956640;29;20035;-77
2023/12/01 11:08:25;;;;;;;13.30;1.63;;;;;;;3.34;100.00;90677.75;4953003;28;20341;-76
2023/12/01 11:11:15;;;;;;;8.07;1.40;;;;;;;3.22;100.00;90677.44;4950218;29;20118;-75
2023/12/01 11:13:46;;;;;;;11.82;2.35;;;;;;;3.18;100.00;90674.66;4934871;29;20063;-76
2023/12/01 11:16:13;;;;;;;156.45;5.70;;;;;;;3.15;100.00;90672.63;4935028;29;20047;-76
2023/12/01 11:18:43;;;;;;;32.45;2.85;;;;;;;3.11;100.00;90667.28;4952016;29;20273;-76
2023/12/01 11:21:09;;;;;;;79.57;3.15;;;;;;;3.09;100.00;90661.63;4951555;29;20123;-77
2023/12/01 11:23:35;;;;;;;41.83;2.78;;;;;;;3.30;100.00;90669.78;4934661;29;20121;-77
2023/12/01 11:26:08;;;;;;;209.00;8.27;;;;;;;3.32;100.00;90665.09;4952370;29;20090;-77
2023/12/01 11:31:17;;;;;;;450.02;12.82;;;;;;;2.89;100.00;90642.03;4950745;28;20110;-77
2023/12/01 11:33:53;;;;;;;176.55;7.07;;;;;;;2.82;100.00;90644.22;4953356;29;20106;-76